createdAt,value
2018-09-08T00:01:08.859Z,89.40
2018-09-08T00:03:37.513Z,89.40
2018-09-08T00:06:06.536Z,89.30
2018-09-08T00:08:35.373Z,89.30
2018-09-08T00:11:04.026Z,89.20
2018-09-08T00:13:32.943Z,89.20
2018-09-08T00:16:06.746Z,89.20
2018-09-08T00:18:40.733Z,89.20
2018-09-08T00:21:14.900Z,89.20
2018-09-08T00:23:48.763Z,89.30
2018-09-08T00:26:22.826Z,89.60
2018-09-08T00:28:55.481Z,89.60
2018-09-08T00:31:24.407Z,89.80
2018-09-08T00:33:53.125Z,89.80
2018-09-08T00:36:21.967Z,89.80
2018-09-08T00:38:50.664Z,89.80
2018-09-08T00:41:19.317Z,89.90
2018-09-08T00:43:48.001Z,90.10
2018-09-08T00:46:16.737Z,90.10
2018-09-08T00:48:45.450Z,90.10
2018-09-08T00:51:14.360Z,90.20
2018-09-08T00:53:43.005Z,90.40
2018-09-08T00:56:11.626Z,90.50
2018-09-08T00:58:43.914Z,90.90
2018-09-08T01:01:13.644Z,91.10
2018-09-08T01:03:42.546Z,91.10
2018-09-08T01:06:11.501Z,91.10
2018-09-08T01:08:40.534Z,91.30
2018-09-08T01:11:09.418Z,91.20
2018-09-08T01:13:38.147Z,91.20
2018-09-08T01:16:07.013Z,91.10
2018-09-08T01:18:37.650Z,91.00
2018-09-08T01:21:08.783Z,91.00
2018-09-08T01:23:37.880Z,91.00
2018-09-08T01:26:06.832Z,90.90
2018-09-08T01:28:35.551Z,91.00
2018-09-08T01:31:04.473Z,91.00
2018-09-08T01:33:33.199Z,91.10
2018-09-08T01:36:01.837Z,91.10
2018-09-08T01:38:30.576Z,91.10
2018-09-08T01:40:59.220Z,91.30
2018-09-08T01:43:27.817Z,91.30
2018-09-08T01:45:56.513Z,91.20
2018-09-08T01:48:25.168Z,91.10
2018-09-08T01:50:54.048Z,91.10
2018-09-08T01:53:22.997Z,91.10
2018-09-08T01:55:51.672Z,91.00
2018-09-08T01:58:20.445Z,91.00
2018-09-08T02:00:49.149Z,91.00
2018-09-08T02:03:17.792Z,91.00
2018-09-08T02:05:46.422Z,90.90
2018-09-08T02:08:15.098Z,90.80
2018-09-08T02:10:43.856Z,90.90
2018-09-08T02:13:13.284Z,90.90
2018-09-08T02:15:42.122Z,90.90
2018-09-08T02:18:10.943Z,90.70
2018-09-08T02:20:39.621Z,90.50
2018-09-08T02:23:08.437Z,90.40
2018-09-08T02:25:37.109Z,90.20
2018-09-08T02:28:05.905Z,90.20
2018-09-08T02:30:34.612Z,90.30
2018-09-08T02:33:03.493Z,90.20
2018-09-08T02:35:32.153Z,90.10
2018-09-08T02:38:01.184Z,90.10
2018-09-08T02:40:29.848Z,90.10
2018-09-08T02:42:58.543Z,90.00
2018-09-08T02:45:27.261Z,89.80
2018-09-08T02:47:55.951Z,89.80
2018-09-08T02:50:38.569Z,89.80
2018-09-08T02:53:07.199Z,90.00
2018-09-08T02:55:34.924Z,90.10
2018-09-08T02:58:02.391Z,90.40
2018-09-08T03:00:30.250Z,90.60
2018-09-08T03:02:57.917Z,90.80
2018-09-08T03:05:25.435Z,91.10
2018-09-08T03:07:52.930Z,91.30
2018-09-08T03:10:21.088Z,91.50
2018-09-08T03:12:48.505Z,91.80
2018-09-08T03:15:16.116Z,91.90
2018-09-08T03:17:43.588Z,92.40
2018-09-08T03:20:11.233Z,92.50
2018-09-08T03:22:38.693Z,92.40
2018-09-08T03:25:06.452Z,92.70
2018-09-08T03:27:33.940Z,92.90
2018-09-08T03:30:01.467Z,93.00
2018-09-08T03:32:28.939Z,93.00
2018-09-08T03:34:56.396Z,93.00
2018-09-08T03:37:24.068Z,93.20
2018-09-08T03:39:51.508Z,93.50
2018-09-08T03:42:18.966Z,93.20
2018-09-08T03:44:46.433Z,93.00
2018-09-08T03:47:13.910Z,93.20
2018-09-08T03:49:41.345Z,93.40
2018-09-08T03:52:09.047Z,93.60
2018-09-08T03:54:36.534Z,93.80
2018-09-08T03:57:03.983Z,93.80
2018-09-08T03:59:31.397Z,94.00
2018-09-08T04:01:58.844Z,94.10
2018-09-08T04:04:27.852Z,94.30
2018-09-08T04:06:56.625Z,94.40
2018-09-08T04:09:25.640Z,94.60
2018-09-08T04:11:54.784Z,94.90
2018-09-08T04:14:24.564Z,95.00
2018-09-08T04:16:53.270Z,95.00
2018-09-08T04:19:22.185Z,95.20
2018-09-08T04:21:50.890Z,95.20
2018-09-08T04:24:19.641Z,95.20
2018-09-08T04:26:48.539Z,95.10
2018-09-08T04:29:17.810Z,95.00
2018-09-08T04:31:46.477Z,95.00
2018-09-08T04:34:15.221Z,95.00
2018-09-08T04:36:44.119Z,95.20
2018-09-08T04:39:12.761Z,95.20
2018-09-08T04:41:41.452Z,94.90
2018-09-08T04:44:10.205Z,94.70
2018-09-08T04:46:38.923Z,94.70
2018-09-08T04:49:07.621Z,94.90
2018-09-08T04:51:36.278Z,95.00
2018-09-08T04:54:04.896Z,94.90
2018-09-08T04:56:33.515Z,94.70
2018-09-08T04:59:02.584Z,94.90
2018-09-08T05:01:31.238Z,94.90
2018-09-08T05:03:59.949Z,94.90
2018-09-08T05:06:28.664Z,95.00
2018-09-08T05:08:57.426Z,95.00
2018-09-08T05:11:26.097Z,95.00
2018-09-08T05:13:54.847Z,95.20
2018-09-08T05:16:23.532Z,95.30
2018-09-08T05:18:52.422Z,95.40
2018-09-08T05:21:21.211Z,95.40
2018-09-08T05:23:49.936Z,95.40
2018-09-08T05:26:18.578Z,95.30
2018-09-08T05:28:47.304Z,95.40
2018-09-08T05:31:15.964Z,95.40
2018-09-08T05:33:44.621Z,95.40
2018-09-08T05:36:13.310Z,95.20
2018-09-08T05:38:42.170Z,95.10
2018-09-08T05:41:10.893Z,94.90
2018-09-08T05:43:39.562Z,94.90
2018-09-08T05:46:08.190Z,94.90
2018-09-08T05:48:36.880Z,94.90
2018-09-08T05:51:05.452Z,94.90
2018-09-08T05:53:34.342Z,95.00
2018-09-08T05:56:03.576Z,94.80
2018-09-08T05:58:32.483Z,94.80
2018-09-08T06:01:01.117Z,94.80
2018-09-08T06:03:30.023Z,94.60
2018-09-08T06:05:59.577Z,94.60
2018-09-08T06:08:28.252Z,94.40
2018-09-08T06:10:56.868Z,94.30
2018-09-08T06:13:25.774Z,94.10
2018-09-08T06:15:54.434Z,94.00
2018-09-08T06:18:23.306Z,93.80
2018-09-08T06:20:52.028Z,93.40
2018-09-08T06:23:20.681Z,93.20
2018-09-08T06:25:49.377Z,93.20
2018-09-08T06:28:18.062Z,93.10
2018-09-08T06:30:46.780Z,92.90
2018-09-08T06:33:15.550Z,92.70
2018-09-08T06:35:44.222Z,92.50
2018-09-08T06:38:12.896Z,91.90
2018-09-08T06:40:41.777Z,91.70
2018-09-08T06:43:10.453Z,91.40
2018-09-08T06:45:39.221Z,90.80
2018-09-08T06:48:07.822Z,90.70
2018-09-08T06:50:36.590Z,90.30
2018-09-08T06:53:05.236Z,89.90
2018-09-08T06:55:33.972Z,87.20
2018-09-08T06:58:02.919Z,88.50
2018-09-08T07:00:31.603Z,88.90
2018-09-08T07:03:00.213Z,88.40
2018-09-08T07:05:29.996Z,87.30
2018-09-08T07:07:58.700Z,86.90
2018-09-08T07:10:27.386Z,86.90
2018-09-08T07:12:56.243Z,86.00
2018-09-08T07:15:24.981Z,85.60
2018-09-08T07:17:53.636Z,84.90
2018-09-08T07:20:22.292Z,83.00
2018-09-08T07:22:50.924Z,82.70
2018-09-08T07:25:19.625Z,81.40
2018-09-08T07:27:48.239Z,80.90
2018-09-08T07:30:16.907Z,79.50
2018-09-08T07:32:45.518Z,79.80
2018-09-08T07:35:14.466Z,77.80
2018-09-08T07:37:43.463Z,78.00
2018-09-08T07:40:12.449Z,77.10
2018-09-08T07:42:41.096Z,77.00
2018-09-08T07:45:09.891Z,76.70
2018-09-08T07:47:38.753Z,76.70
2018-09-08T07:50:07.624Z,76.60
2018-09-08T07:52:36.392Z,75.20
2018-09-08T07:55:05.192Z,75.00
2018-09-08T07:57:33.818Z,74.00
2018-09-08T08:00:02.471Z,72.90
2018-09-08T08:02:31.220Z,72.00
2018-09-08T08:05:00.287Z,69.20
2018-09-08T08:07:29.109Z,71.00
2018-09-08T08:09:57.736Z,71.30
2018-09-08T08:12:26.633Z,71.30
2018-09-08T08:14:55.441Z,68.60
2018-09-08T08:17:24.325Z,68.00
2018-09-08T08:19:53.529Z,68.90
2018-09-08T08:22:22.308Z,68.30
2018-09-08T08:24:50.932Z,66.70
2018-09-08T08:27:19.648Z,68.10
2018-09-08T08:29:48.498Z,67.10
2018-09-08T08:32:17.393Z,67.60
2018-09-08T08:34:46.412Z,67.30
2018-09-08T08:37:15.338Z,66.70
2018-09-08T08:39:44.480Z,62.00
2018-09-08T08:42:13.512Z,61.60
2018-09-08T08:44:42.519Z,62.30
2018-09-08T08:47:11.132Z,62.60
2018-09-08T08:49:40.108Z,63.00
2018-09-08T08:52:19.668Z,63.80
2018-09-08T08:54:50.398Z,61.40
2018-09-08T08:57:20.084Z,60.80
2018-09-08T09:00:00.656Z,59.80
2018-09-08T09:02:30.710Z,59.30
2018-09-08T09:04:59.665Z,60.60
2018-09-08T09:07:29.400Z,60.50
2018-09-08T09:09:58.061Z,61.70
2018-09-08T09:12:26.681Z,60.70
2018-09-08T09:14:55.273Z,59.20
2018-09-08T09:17:24.440Z,60.10
2018-09-08T09:20:04.148Z,59.40
2018-09-08T09:22:43.828Z,57.70
2018-09-08T09:25:12.472Z,57.80
2018-09-08T09:27:49.080Z,57.20
2018-09-08T09:30:18.680Z,57.70
2018-09-08T09:32:47.816Z,58.10
2018-09-08T09:35:19.916Z,56.20
2018-09-08T09:37:48.640Z,55.80
2018-09-08T09:40:21.536Z,55.60
2018-09-08T09:43:07.443Z,56.00
2018-09-08T09:45:36.106Z,56.80
2018-09-08T09:48:04.781Z,56.70
2018-09-08T09:50:33.487Z,56.80
2018-09-08T09:53:02.212Z,57.90
2018-09-08T09:55:31.134Z,57.80
2018-09-08T09:58:06.215Z,56.30
2018-09-08T10:00:40.288Z,54.50
2018-09-08T10:03:09.445Z,54.30
2018-09-08T10:05:38.249Z,53.10
2018-09-08T10:08:06.948Z,52.80
2018-09-08T10:10:35.666Z,51.90
2018-09-08T10:13:04.337Z,53.60
2018-09-08T10:15:33.109Z,53.90
2018-09-08T10:18:02.004Z,51.20
2018-09-08T10:20:31.772Z,51.40
2018-09-08T10:23:00.481Z,49.70
2018-09-08T10:25:31.854Z,52.10
2018-09-08T10:28:01.861Z,52.50
2018-09-08T10:30:32.470Z,51.20
2018-09-08T10:33:01.657Z,53.10
2018-09-08T10:35:30.987Z,52.60
2018-09-08T10:37:59.846Z,51.70
2018-09-08T10:40:29.005Z,51.90
2018-09-08T10:42:57.979Z,52.50
2018-09-08T10:45:27.073Z,49.70
2018-09-08T10:47:58.239Z,51.40
2018-09-08T10:50:27.071Z,52.10
2018-09-08T10:52:56.300Z,49.70
2018-09-08T10:55:26.112Z,48.50
2018-09-08T10:57:55.262Z,50.20
2018-09-08T11:00:23.921Z,52.60
2018-09-08T11:02:53.469Z,53.30
2018-09-08T11:05:22.561Z,53.30
2018-09-08T11:07:51.408Z,52.10
2018-09-08T11:10:21.155Z,51.60
2018-09-08T11:12:55.439Z,53.20
2018-09-08T11:15:24.735Z,50.30
2018-09-08T11:17:53.701Z,51.70
2018-09-08T11:20:25.408Z,51.50
2018-09-08T11:22:55.011Z,50.70
2018-09-08T11:25:23.838Z,51.40
2018-09-08T11:27:52.524Z,51.40
2018-09-08T11:30:21.292Z,50.90
2018-09-08T11:32:49.910Z,50.70
2018-09-08T11:35:18.816Z,51.00
2018-09-08T11:37:47.914Z,50.70
2018-09-08T11:40:16.533Z,52.80
2018-09-08T11:42:45.212Z,52.20
2018-09-08T11:45:13.904Z,51.00
2018-09-08T11:47:42.622Z,49.80
2018-09-08T11:50:11.484Z,48.20
2018-09-08T11:52:40.336Z,48.00
2018-09-08T11:55:09.189Z,49.00
2018-09-08T11:57:37.853Z,50.50
2018-09-08T12:00:07.224Z,49.00
2018-09-08T12:02:36.155Z,50.30
2018-09-08T12:05:05.104Z,49.60
2018-09-08T12:07:33.685Z,47.30
2018-09-08T12:10:02.725Z,48.50
2018-09-08T12:12:31.384Z,49.30
2018-09-08T12:15:00.280Z,50.00
2018-09-08T12:17:29.229Z,51.00
2018-09-08T12:19:57.813Z,52.50
2018-09-08T12:22:26.429Z,51.20
2018-09-08T12:25:02.889Z,51.90
2018-09-08T12:27:31.541Z,51.80
2018-09-08T12:30:00.243Z,49.70
2018-09-08T12:32:28.974Z,50.20
2018-09-08T12:34:57.573Z,49.80
2018-09-08T12:37:26.853Z,50.60
2018-09-08T12:39:55.508Z,48.90
2018-09-08T12:42:24.197Z,48.80
2018-09-08T12:44:52.981Z,50.10
2018-09-08T12:47:21.993Z,49.10
2018-09-08T12:49:50.745Z,50.20
2018-09-08T12:52:19.361Z,50.40
2018-09-08T12:54:48.104Z,50.60
2018-09-08T12:57:16.799Z,48.10
2018-09-08T12:59:45.610Z,48.40
2018-09-08T13:02:15.694Z,48.20
2018-09-08T13:04:44.426Z,48.30
2018-09-08T13:07:13.068Z,49.70
2018-09-08T13:09:41.721Z,47.00
2018-09-08T13:12:10.685Z,48.80
2018-09-08T13:14:39.484Z,46.80
2018-09-08T13:17:08.540Z,47.10
2018-09-08T13:19:37.968Z,47.10
2018-09-08T13:25:00.024Z,44.90
2018-09-08T13:27:29.712Z,46.10
2018-09-08T13:29:59.721Z,45.80
2018-09-08T13:32:29.096Z,46.60
2018-09-08T13:34:57.757Z,46.80
2018-09-08T13:37:27.387Z,47.40
2018-09-08T13:39:56.315Z,48.90
2018-09-08T13:42:24.993Z,48.10
2018-09-08T13:44:53.727Z,47.20
2018-09-08T13:47:22.676Z,47.20
2018-09-08T13:49:51.382Z,44.20
2018-09-08T13:52:20.345Z,44.10
2018-09-08T13:54:49.013Z,44.40
2018-09-08T13:57:17.991Z,43.30
2018-09-08T13:59:46.902Z,41.00
2018-09-08T14:02:16.280Z,39.80
2018-09-08T14:04:44.892Z,40.20
2018-09-08T14:07:13.579Z,41.60
2018-09-08T14:09:42.837Z,41.10
2018-09-08T14:12:12.161Z,40.90
2018-09-08T14:14:40.813Z,40.60
2018-09-08T14:17:10.252Z,40.40
2018-09-08T14:19:38.917Z,39.90
2018-09-08T14:22:07.733Z,40.50
2018-09-08T14:24:36.457Z,39.90
2018-09-08T14:27:05.137Z,40.10
2018-09-08T14:29:34.312Z,41.10
2018-09-08T14:32:03.388Z,41.40
2018-09-08T14:34:32.967Z,40.90
2018-09-08T14:37:01.631Z,41.90
2018-09-08T14:39:30.497Z,41.40
2018-09-08T14:41:59.539Z,41.70
2018-09-08T14:44:28.304Z,42.60
2018-09-08T14:46:57.002Z,42.60
2018-09-08T14:49:26.404Z,40.40
2018-09-08T14:51:55.007Z,40.70
2018-09-08T14:54:26.879Z,39.70
2018-09-08T14:56:57.366Z,38.80
2018-09-08T14:59:26.290Z,37.40
2018-09-08T15:01:58.771Z,35.60
2018-09-08T15:04:27.654Z,37.40
2018-09-08T15:06:56.244Z,38.50
2018-09-08T15:09:24.941Z,38.20
2018-09-08T15:11:53.703Z,37.10
2018-09-08T15:14:22.480Z,37.60
2018-09-08T15:16:51.424Z,38.20
2018-09-08T15:19:20.217Z,40.20
2018-09-08T15:21:49.392Z,41.30
2018-09-08T15:24:18.066Z,41.30
2018-09-08T15:26:46.886Z,43.00
2018-09-08T15:29:15.989Z,41.30
2018-09-08T15:31:45.727Z,42.90
2018-09-08T15:34:15.091Z,43.10
2018-09-08T15:36:44.726Z,41.40
2018-09-08T15:39:13.425Z,40.20
2018-09-08T15:41:42.321Z,39.30
2018-09-08T15:44:11.117Z,39.60
2018-09-08T15:46:40.080Z,39.90
2018-09-08T15:49:08.978Z,39.70
2018-09-08T15:51:37.703Z,39.30
2018-09-08T15:54:06.436Z,39.80
2018-09-08T15:56:35.472Z,40.80
2018-09-08T15:59:04.132Z,42.90
2018-09-08T16:01:32.829Z,43.10
2018-09-08T16:04:01.555Z,43.50
2018-09-08T16:06:30.268Z,44.50
2018-09-08T16:08:58.981Z,45.40
2018-09-08T16:11:27.685Z,44.10
2018-09-08T16:13:56.517Z,43.80
2018-09-08T16:16:25.173Z,44.30
2018-09-08T16:18:54.289Z,44.70
2018-09-08T16:21:22.915Z,45.00
2018-09-08T16:23:51.570Z,46.40
2018-09-08T16:26:20.262Z,46.60
2018-09-08T16:28:49.110Z,46.50
2018-09-08T16:31:18.073Z,48.40
2018-09-08T16:33:46.769Z,48.50
2018-09-08T16:36:15.726Z,48.80
2018-09-08T16:38:45.883Z,48.20
2018-09-08T16:41:14.952Z,48.10
2018-09-08T16:43:43.641Z,47.80
2018-09-08T16:46:12.298Z,47.10
2018-09-08T16:48:41.244Z,47.60
2018-09-08T16:51:09.928Z,48.10
2018-09-08T16:53:39.841Z,48.10
2018-09-08T16:56:15.198Z,49.00
2018-09-08T16:58:43.923Z,49.80
2018-09-08T17:01:12.561Z,50.90
2018-09-08T17:03:41.425Z,50.80
2018-09-08T17:06:10.452Z,51.60
2018-09-08T17:08:39.569Z,52.00
2018-09-08T17:11:08.297Z,52.50
2018-09-08T17:13:37.193Z,53.30
2018-09-08T17:16:05.933Z,52.90
2018-09-08T17:18:34.796Z,52.50
2018-09-08T17:21:03.556Z,53.10
2018-09-08T17:23:32.260Z,53.70
2018-09-08T17:26:01.410Z,54.60
2018-09-08T17:28:30.264Z,55.10
2018-09-08T17:30:59.123Z,56.10
2018-09-08T17:33:27.916Z,57.00
2018-09-08T17:35:56.646Z,58.00
2018-09-08T17:38:25.521Z,58.50
2018-09-08T17:40:54.145Z,58.50
2018-09-08T17:43:22.732Z,59.20
2018-09-08T17:45:51.408Z,60.00
2018-09-08T17:48:20.480Z,61.00
2018-09-08T17:50:49.411Z,61.30
2018-09-08T17:53:18.360Z,61.70
2018-09-08T17:55:47.005Z,62.10
2018-09-08T17:58:15.741Z,62.60
2018-09-08T18:00:44.616Z,63.50
2018-09-08T18:03:13.612Z,64.20
2018-09-08T18:05:42.520Z,64.30
2018-09-08T18:08:11.372Z,64.90
2018-09-08T18:10:40.056Z,65.10
2018-09-08T18:13:08.724Z,65.30
2018-09-08T18:15:37.401Z,65.10
2018-09-08T18:18:06.374Z,65.00
2018-09-08T18:20:35.078Z,65.20
2018-09-08T18:23:03.873Z,65.70
2018-09-08T18:25:32.798Z,66.30
2018-09-08T18:28:01.453Z,66.90
2018-09-08T18:30:30.085Z,67.20
2018-09-08T18:32:59.235Z,67.20
2018-09-08T18:35:28.083Z,67.40
2018-09-08T18:37:56.745Z,67.80
2018-09-08T18:40:25.640Z,68.00
2018-09-08T18:42:54.463Z,68.10
2018-09-08T18:45:23.157Z,68.40
2018-09-08T18:47:52.096Z,68.80
2018-09-08T18:50:20.732Z,69.10
2018-09-08T18:52:50.238Z,69.40
2018-09-08T18:55:18.848Z,69.90
2018-09-08T18:57:47.758Z,70.00
2018-09-08T19:00:16.493Z,70.20
2018-09-08T19:02:45.108Z,70.90
2018-09-08T19:05:13.811Z,71.40
2018-09-08T19:07:42.800Z,71.60
2018-09-08T19:10:11.804Z,72.00
2018-09-08T19:12:40.484Z,72.60
2018-09-08T19:15:14.340Z,72.80
2018-09-08T19:17:43.396Z,73.00
2018-09-08T19:20:17.318Z,73.00
2018-09-08T19:22:46.065Z,73.00
2018-09-08T19:25:15.005Z,73.10
2018-09-08T19:27:43.969Z,73.50
2018-09-08T19:30:12.671Z,73.70
2018-09-08T19:32:41.430Z,74.00
2018-09-08T19:35:15.364Z,74.30
2018-09-08T19:37:43.987Z,74.60
2018-09-08T19:40:18.127Z,75.20
2018-09-08T19:42:46.803Z,75.60
2018-09-08T19:45:15.465Z,75.80
2018-09-08T19:47:49.366Z,75.90
2018-09-08T19:50:18.137Z,76.30
2018-09-08T19:52:52.069Z,76.60
2018-09-08T19:55:20.754Z,77.10
2018-09-08T19:57:54.633Z,77.70
2018-09-08T20:00:23.316Z,77.80
2018-09-08T20:02:52.253Z,78.20
2018-09-08T20:05:21.021Z,78.70
2018-09-08T20:07:49.663Z,79.20
2018-09-08T20:10:18.291Z,79.30
2018-09-08T20:12:47.018Z,79.60
2018-09-08T20:15:15.636Z,79.70
2018-09-08T20:17:44.329Z,80.00
2018-09-08T20:20:13.018Z,80.60
2018-09-08T20:22:41.721Z,80.70
2018-09-08T20:25:10.673Z,81.10
2018-09-08T20:27:39.380Z,81.00
2018-09-08T20:30:09.116Z,81.00
2018-09-08T20:32:37.859Z,81.10
2018-09-08T20:35:06.840Z,81.20
2018-09-08T20:37:36.825Z,81.20
2018-09-08T20:40:06.197Z,81.20
2018-09-08T20:42:34.897Z,81.20
2018-09-08T20:45:03.951Z,81.30
2018-09-08T20:47:32.556Z,81.40
2018-09-08T20:50:01.722Z,81.40
2018-09-08T20:52:30.417Z,81.90
2018-09-08T20:54:59.151Z,82.30
2018-09-08T20:57:28.099Z,82.40
2018-09-08T20:59:57.021Z,82.70
2018-09-08T21:02:25.874Z,82.80
2018-09-08T21:04:54.584Z,82.80
2018-09-08T21:07:24.556Z,83.00
2018-09-08T21:09:53.185Z,83.20
2018-09-08T21:12:22.174Z,83.00
2018-09-08T21:14:51.263Z,83.00
2018-09-08T21:17:19.900Z,83.00
2018-09-08T21:19:48.977Z,83.00
2018-09-08T21:22:17.609Z,83.40
2018-09-08T21:24:46.303Z,83.40
2018-09-08T21:27:16.863Z,83.50
2018-09-08T21:29:46.237Z,83.70
2018-09-08T21:32:15.103Z,83.60
2018-09-08T21:34:43.740Z,83.70
2018-09-08T21:37:12.469Z,83.80
2018-09-08T21:39:41.175Z,83.90
2018-09-08T21:42:09.871Z,84.00
2018-09-08T21:44:38.525Z,84.20
2018-09-08T21:47:07.415Z,84.20
2018-09-08T21:49:36.099Z,84.80
2018-09-08T21:52:05.159Z,84.80
2018-09-08T21:54:33.865Z,85.00
2018-09-08T21:57:02.508Z,85.10
2018-09-08T21:59:31.373Z,85.10
2018-09-08T22:02:00.788Z,85.30
2018-09-08T22:04:29.788Z,85.30
2018-09-08T22:06:58.485Z,85.60
2018-09-08T22:09:27.177Z,85.80
2018-09-08T22:11:55.859Z,85.90
2018-09-08T22:14:24.648Z,86.20
2018-09-08T22:16:53.269Z,86.30
2018-09-08T22:19:22.157Z,86.30
2018-09-08T22:21:50.781Z,86.20
2018-09-08T22:24:19.468Z,86.30
2018-09-08T22:26:48.245Z,86.50
2018-09-08T22:29:16.925Z,86.50
2018-09-08T22:31:45.584Z,86.50
2018-09-08T22:34:14.316Z,86.50
2018-09-08T22:36:42.993Z,86.50
2018-09-08T22:39:12.121Z,86.60
2018-09-08T22:41:41.316Z,86.60
2018-09-08T22:44:10.173Z,86.60
2018-09-08T22:46:39.068Z,86.70
2018-09-08T22:49:08.587Z,86.80
2018-09-08T22:51:37.285Z,86.90
2018-09-08T22:54:06.471Z,87.00
2018-09-08T22:56:35.197Z,87.20
2018-09-08T22:59:03.848Z,87.20
2018-09-08T23:01:32.531Z,87.30
2018-09-08T23:04:01.385Z,87.30
2018-09-08T23:06:30.061Z,87.40
2018-09-08T23:08:58.771Z,87.30
2018-09-08T23:11:32.613Z,87.30
2018-09-08T23:14:01.286Z,87.30
2018-09-08T23:16:29.996Z,87.40
2018-09-08T23:18:58.803Z,87.60
2018-09-08T23:21:27.487Z,87.60
2018-09-08T23:23:56.158Z,87.70
2018-09-08T23:26:24.825Z,87.90
2018-09-08T23:28:53.504Z,87.90
2018-09-08T23:31:22.167Z,87.90
2018-09-08T23:33:50.776Z,87.60
2018-09-08T23:36:19.474Z,87.60
2018-09-08T23:38:48.141Z,87.70
2018-09-08T23:41:17.061Z,87.80
2018-09-08T23:43:45.699Z,87.90
2018-09-08T23:46:14.337Z,88.10
2018-09-08T23:48:43.002Z,88.20
2018-09-08T23:51:11.697Z,88.30
2018-09-08T23:53:40.280Z,88.20
2018-09-08T23:56:08.936Z,88.20
2018-09-08T23:58:37.569Z,88.30
